Time;durP1;ratioP1;P1;durP2;ratioP2;P2;SDS_P1;SDS_P2;PMS_P1;PMS_P2;Temp;Humidity;BMP_temperature;BMP_pressure;BME280_temperature;BME280_humidity;BME280_pressure;Samples;Min_cycle;Max_cycle;Signal;HPM_P1;HPM_P2
2023/04/12 00:00:58;;;;;;;6.88;2.50;;;;;;;;;;4993964;28;20120;-67
2023/04/12 00:03:25;;;;;;;5.13;2.15;;;;;;;;;;4993165;28;20029;-66
2023/04/12 00:05:53;;;;;;;7.30;2.28;;;;;;;;;;4993324;28;20026;-67
2023/04/12 00:08:25;;;;;;;6.70;2.40;;;;;;;;;;4993099;28;20029;-67
2023/04/12 00:10:51;;;;;;;6.65;2.30;;;;;;;;;;4991978;28;20018;-67
2023/04/12 00:13:16;;;;;;;7.93;2.30;;;;;;;;;;4992980;28;20026;-67
2023/04/12 00:15:42;;;;;;;7.03;2.42;;;;;;;;;;4992669;28;20030;-67
2023/04/12 00:18:07;;;;;;;5.10;2.13;;;;;;;;;;4993248;28;20034;-67
2023/04/12 00:20:32;;;;;;;8.18;2.95;;;;;;;;;;4993290;28;20478;-66
2023/04/12 00:22:58;;;;;;;4.65;2.30;;;;;;;;;;4995480;28;20030;-67
2023/04/12 00:25:23;;;;;;;6.95;2.33;;;;;;;;;;4994666;28;20487;-67
2023/04/12 00:27:49;;;;;;;7.50;2.38;;;;;;;;;;4993321;28;20026;-66
2023/04/12 00:30:14;;;;;;;6.55;2.33;;;;;;;;;;5008067;28;20088;-67
2023/04/12 00:32:40;;;;;;;8.07;2.40;;;;;;;;;;4992780;28;20060;-66
2023/04/12 00:35:06;;;;;;;8.07;2.60;;;;;;;;;;4992989;28;20023;-66
2023/04/12 00:37:32;;;;;;;6.28;2.60;;;;;;;;;;4992420;28;20034;-66
2023/04/12 00:39:57;;;;;;;6.03;2.45;;;;;;;;;;4992841;28;20033;-66
2023/04/12 00:42:22;;;;;;;7.32;2.40;;;;;;;;;;4992596;28;20537;-67
2023/04/12 00:44:48;;;;;;;5.50;2.42;;;;;;;;;;4991214;28;20085;-66
2023/04/12 00:47:14;;;;;;;5.97;2.25;;;;;;;;;;4992701;28;20050;-66
2023/04/12 00:49:40;;;;;;;6.25;2.38;;;;;;;;;;4992677;28;20381;-66
2023/04/12 00:52:13;;;;;;;7.53;2.60;;;;;;;;;;4991261;28;20034;-66
2023/04/12 00:54:39;;;;;;;6.18;2.40;;;;;;;;;;4992212;28;20038;-68
2023/04/12 00:57:05;;;;;;;9.45;2.28;;;;;;;;;;4992586;28;20026;-66
2023/04/12 00:59:30;;;;;;;5.40;2.40;;;;;;;;;;4992355;28;20076;-66
2023/04/12 01:01:57;;;;;;;5.32;2.60;;;;;;;;;;4992411;28;20042;-67
2023/04/12 01:04:25;;;;;;;5.68;2.13;;;;;;;;;;4992082;28;20030;-67
2023/04/12 01:07:15;;;;;;;7.32;2.47;;;;;;;;;;4992273;28;20030;-66
2023/04/12 01:09:59;;;;;;;6.45;2.10;;;;;;;;;;4992051;28;20398;-67
2023/04/12 01:12:45;;;;;;;5.30;2.10;;;;;;;;;;4992280;28;20034;-66
2023/04/12 01:15:13;;;;;;;7.55;2.47;;;;;;;;;;4991926;28;20084;-67
2023/04/12 01:18:18;;;;;;;6.97;2.55;;;;;;;;;;4990683;28;20022;-67
2023/04/12 01:20:52;;;;;;;4.78;2.20;;;;;;;;;;4989051;28;20046;-67
2023/04/12 01:23:50;;;;;;;5.43;2.25;;;;;;;;;;4991823;28;20022;-67
2023/04/12 01:26:45;;;;;;;3.63;2.00;;;;;;;;;;4991821;28;20023;-66
2023/04/12 01:29:14;;;;;;;5.60;2.20;;;;;;;;;;4991684;28;20101;-67
2023/04/12 01:31:45;;;;;;;4.82;2.30;;;;;;;;;;4991994;28;20038;-67
2023/04/12 01:34:11;;;;;;;5.55;2.40;;;;;;;;;;4991560;28;20062;-67
2023/04/12 01:36:38;;;;;;;7.30;2.50;;;;;;;;;;4991732;28;20022;-67
2023/04/12 01:39:03;;;;;;;7.80;2.40;;;;;;;;;;4991627;28;20038;-66
2023/04/12 01:41:31;;;;;;;5.57;2.60;;;;;;;;;;4991789;28;20463;-67
2023/04/12 01:43:56;;;;;;;7.68;2.35;;;;;;;;;;4990032;28;20038;-66
2023/04/12 01:46:22;;;;;;;7.00;2.63;;;;;;;;;;4990242;28;20038;-67
2023/04/12 01:48:50;;;;;;;9.25;2.38;;;;;;;;;;4991504;28;20045;-67
2023/04/12 01:51:31;;;;;;;5.82;2.45;;;;;;;;;;4990161;28;20406;-66
2023/04/12 01:53:58;;;;;;;;;;;;;;;;;;4991464;28;20114;-66
2023/04/12 01:56:28;;;;;;;7.22;2.47;;;;;;;;;;4991431;28;19928;-66
2023/04/12 01:58:54;;;;;;;;;;;;;;;;;;4991520;28;20030;-67
2023/04/12 02:01:21;;;;;;;6.88;2.50;;;;;;;;;;4991572;28;20436;-66
2023/04/12 02:03:48;;;;;;;5.82;2.70;;;;;;;;;;4991120;28;20029;-66
2023/04/12 02:06:15;;;;;;;6.47;2.58;;;;;;;;;;4991192;28;20050;-66
2023/04/12 02:08:40;;;;;;;7.32;2.28;;;;;;;;;;4991038;28;20037;-66
2023/04/12 02:11:10;;;;;;;7.55;2.72;;;;;;;;;;4991074;28;20022;-67
2023/04/12 02:13:35;;;;;;;8.23;2.60;;;;;;;;;;4989739;28;20073;-66
2023/04/12 02:16:01;;;;;;;5.43;2.40;;;;;;;;;;4991018;28;20112;-67
2023/04/12 02:18:27;;;;;;;8.05;2.75;;;;;;;;;;4990956;28;20406;-67
2023/04/12 02:20:53;;;;;;;3.83;2.50;;;;;;;;;;4990853;28;20402;-67
2023/04/12 02:23:18;;;;;;;6.35;2.60;;;;;;;;;;4991033;28;20030;-67
2023/04/12 02:25:45;;;;;;;9.35;2.58;;;;;;;;;;4990553;28;20471;-67
2023/04/12 02:28:12;;;;;;;6.30;2.22;;;;;;;;;;4990895;28;20095;-66
2023/04/12 02:30:37;;;;;;;4.70;2.55;;;;;;;;;;4990844;28;20049;-66
2023/04/12 02:33:04;;;;;;;7.35;2.40;;;;;;;;;;4990876;28;20486;-67
2023/04/12 02:35:31;;;;;;;7.97;2.85;;;;;;;;;;4990627;28;20022;-66
2023/04/12 02:37:56;;;;;;;4.75;2.40;;;;;;;;;;4990562;28;20034;-67
2023/04/12 02:40:22;;;;;;;6.90;2.70;;;;;;;;;;4990658;28;20117;-67
2023/04/12 02:42:47;;;;;;;8.10;2.40;;;;;;;;;;4989575;28;20030;-67
2023/04/12 02:45:13;;;;;;;6.50;2.60;;;;;;;;;;4990031;28;20089;-67
2023/04/12 02:47:39;;;;;;;8.07;2.60;;;;;;;;;;4990726;28;20030;-66
2023/04/12 02:50:06;;;;;;;5.68;2.35;;;;;;;;;;4990307;28;20027;-68
2023/04/12 02:52:32;;;;;;;5.45;2.45;;;;;;;;;;4990470;28;20030;-68
2023/04/12 02:54:57;;;;;;;4.43;2.20;;;;;;;;;;4990203;28;20022;-68
2023/04/12 02:57:23;;;;;;;7.95;2.47;;;;;;;;;;4989266;28;20152;-67
2023/04/12 02:59:52;;;;;;;6.13;2.50;;;;;;;;;;4990333;28;20077;-67
2023/04/12 03:02:22;;;;;;;7.10;2.50;;;;;;;;;;4990518;28;20062;-67
2023/04/12 03:04:49;;;;;;;7.20;2.63;;;;;;;;;;4988874;28;20022;-67
2023/04/12 03:07:20;;;;;;;4.38;2.40;;;;;;;;;;4990398;28;20030;-66
2023/04/12 03:09:46;;;;;;;7.97;2.38;;;;;;;;;;4990452;28;20088;-66
2023/04/12 03:12:13;;;;;;;5.88;2.70;;;;;;;;;;4990794;28;20482;-67
2023/04/12 03:14:38;;;;;;;7.10;2.30;;;;;;;;;;4990068;28;20080;-66
2023/04/12 03:17:04;;;;;;;7.93;2.38;;;;;;;;;;4990385;28;20102;-66
2023/04/12 03:19:31;;;;;;;6.40;2.58;;;;;;;;;;4990047;28;20386;-66
2023/04/12 03:21:58;;;;;;;7.13;2.20;;;;;;;;;;4990113;28;20031;-67
2023/04/12 03:24:23;;;;;;;6.53;2.40;;;;;;;;;;4990168;28;20088;-67
2023/04/12 03:26:49;;;;;;;5.78;2.30;;;;;;;;;;4990441;28;20030;-67
2023/04/12 03:29:15;;;;;;;6.25;2.55;;;;;;;;;;4990261;28;20038;-66
2023/04/12 03:31:40;;;;;;;4.10;2.53;;;;;;;;;;4990425;28;20049;-66
2023/04/12 03:34:07;;;;;;;8.38;2.60;;;;;;;;;;4990215;28;20413;-66
2023/04/12 03:36:32;;;;;;;9.82;2.90;;;;;;;;;;4989740;28;20026;-66
2023/04/12 03:38:58;;;;;;;7.00;2.63;;;;;;;;;;4989866;28;20118;-67
2023/04/12 03:41:25;;;;;;;8.70;2.65;;;;;;;;;;4989906;28;20458;-67
2023/04/12 03:43:51;;;;;;;6.60;2.28;;;;;;;;;;4990273;28;20471;-66
2023/04/12 03:46:16;;;;;;;4.47;2.25;;;;;;;;;;4989791;28;20049;-66
2023/04/12 03:48:42;;;;;;;6.00;2.85;;;;;;;;;;4990389;28;20030;-67
2023/04/12 03:51:11;;;;;;;9.50;2.40;;;;;;;;;;4991717;28;20398;-66
2023/04/12 03:53:39;;;;;;;6.03;2.30;;;;;;;;;;4993709;28;20569;-66
2023/04/12 03:56:05;;;;;;;6.72;2.35;;;;;;;;;;4993366;28;20034;-67
2023/04/12 03:58:32;;;;;;;6.85;2.17;;;;;;;;;;4993609;28;20046;-66
2023/04/12 04:01:00;;;;;;;5.93;2.60;;;;;;;;;;4993617;28;20482;-67
2023/04/12 04:03:28;;;;;;;5.13;2.40;;;;;;;;;;4993569;28;20027;-66
2023/04/12 04:05:55;;;;;;;6.35;2.42;;;;;;;;;;4991818;28;20376;-67
2023/04/12 04:08:20;;;;;;;5.75;2.50;;;;;;;;;;4993620;28;20578;-68
2023/04/12 04:10:46;;;;;;;5.28;2.40;;;;;;;;;;4993143;28;20110;-66
2023/04/12 04:13:11;;;;;;;9.35;2.70;;;;;;;;;;4993428;28;20029;-66
2023/04/12 04:15:37;;;;;;;7.07;2.50;;;;;;;;;;4992828;28;20026;-66
2023/04/12 04:18:02;;;;;;;5.82;2.53;;;;;;;;;;4993304;28;20026;-66
2023/04/12 04:20:27;;;;;;;5.70;2.40;;;;;;;;;;4993055;28;20031;-67
2023/04/12 04:22:53;;;;;;;7.63;2.60;;;;;;;;;;4993265;28;20026;-66
2023/04/12 04:25:18;;;;;;;6.32;2.53;;;;;;;;;;4992887;28;20026;-66
2023/04/12 04:27:44;;;;;;;6.25;2.47;;;;;;;;;;4993250;28;20026;-66
2023/04/12 04:30:17;;;;;;;4.22;2.30;;;;;;;;;;4992869;28;20033;-67
2023/04/12 04:32:43;;;;;;;6.88;2.85;;;;;;;;;;4993045;28;20033;-67
2023/04/12 04:35:08;;;;;;;4.07;2.17;;;;;;;;;;4992691;28;20027;-66
2023/04/12 04:37:34;;;;;;;5.88;2.80;;;;;;;;;;4993077;28;20022;-66
2023/04/12 04:40:10;;;;;;;7.82;2.42;;;;;;;;;;4992921;28;20041;-67
2023/04/12 04:42:37;;;;;;;5.65;2.50;;;;;;;;;;4993023;28;20079;-67
2023/04/12 04:45:11;;;;;;;6.00;2.42;;;;;;;;;;4992370;28;20178;-66
2023/04/12 04:47:37;;;;;;;4.70;2.30;;;;;;;;;;4992806;28;20455;-67
2023/04/12 04:50:02;;;;;;;5.45;2.50;;;;;;;;;;4992652;28;20288;-67
2023/04/12 04:52:28;;;;;;;7.63;2.72;;;;;;;;;;4992453;28;20026;-66
2023/04/12 04:54:56;;;;;;;5.28;2.47;;;;;;;;;;4992581;28;20110;-66
2023/04/12 04:57:22;;;;;;;5.80;2.50;;;;;;;;;;4992373;28;20038;-67
2023/04/12 04:59:47;;;;;;;5.05;2.38;;;;;;;;;;4992556;28;20030;-67
2023/04/12 05:02:13;;;;;;;5.25;2.42;;;;;;;;;;4992203;28;20033;-67
2023/04/12 05:04:38;;;;;;;6.50;2.70;;;;;;;;;;4992434;28;20036;-66
2023/04/12 05:07:03;;;;;;;5.57;2.97;;;;;;;;;;4991782;28;20026;-67
2023/04/12 05:09:29;;;;;;;6.40;2.80;;;;;;;;;;4992399;28;20057;-67
2023/04/12 05:11:54;;;;;;;6.70;2.40;;;;;;;;;;4992157;28;20032;-67
2023/04/12 05:14:20;;;;;;;6.10;2.78;;;;;;;;;;4974831;28;20030;-66
2023/04/12 05:16:45;;;;;;;5.97;2.70;;;;;;;;;;4991951;28;20441;-66
2023/04/12 05:19:10;;;;;;;6.10;2.60;;;;;;;;;;4992232;28;20034;-67
2023/04/12 05:21:36;;;;;;;4.65;2.60;;;;;;;;;;4991831;28;20081;-66
2023/04/12 05:24:01;;;;;;;7.15;2.95;;;;;;;;;;4990836;28;20496;-66
2023/04/12 05:26:27;;;;;;;7.78;2.83;;;;;;;;;;4991644;28;20023;-66
2023/04/12 05:28:52;;;;;;;5.97;2.67;;;;;;;;;;4992213;28;20703;-67
2023/04/12 05:31:18;;;;;;;6.03;2.67;;;;;;;;;;4991721;28;20033;-66
2023/04/12 05:33:43;;;;;;;7.63;2.85;;;;;;;;;;4992007;28;20022;-67
2023/04/12 05:36:10;;;;;;;8.85;3.05;;;;;;;;;;4991511;28;20030;-67
2023/04/12 05:38:35;;;;;;;6.28;3.10;;;;;;;;;;4991807;28;20030;-67
2023/04/12 05:41:03;;;;;;;6.25;3.00;;;;;;;;;;4991594;28;20479;-68
2023/04/12 05:43:29;;;;;;;9.07;2.95;;;;;;;;;;4991695;28;20101;-67
2023/04/12 05:45:54;;;;;;;6.57;2.92;;;;;;;;;;4991180;28;20137;-67
2023/04/12 05:48:20;;;;;;;6.55;2.83;;;;;;;;;;4992115;28;20037;-68
2023/04/12 05:50:52;;;;;;;5.82;3.05;;;;;;;;;;4996363;28;20034;-67
2023/04/12 05:53:18;;;;;;;8.00;3.25;;;;;;;;;;4995174;28;20026;-67
2023/04/12 05:55:44;;;;;;;7.78;3.10;;;;;;;;;;4991383;28;20454;-68
2023/04/12 05:58:10;;;;;;;9.05;3.20;;;;;;;;;;4991142;28;20049;-68
2023/04/12 06:00:36;;;;;;;6.50;3.20;;;;;;;;;;4991816;28;20030;-68
2023/04/12 06:03:02;;;;;;;8.40;3.42;;;;;;;;;;4991227;28;20089;-68
2023/04/12 06:05:28;;;;;;;7.10;3.03;;;;;;;;;;4991368;28;20026;-66
2023/04/12 06:07:54;;;;;;;8.20;3.78;;;;;;;;;;4990964;28;20046;-67
2023/04/12 06:10:20;;;;;;;8.02;3.47;;;;;;;;;;4989802;28;20478;-66
2023/04/12 06:12:46;;;;;;;9.50;3.30;;;;;;;;;;4990328;28;20042;-66
2023/04/12 06:15:12;;;;;;;7.68;3.40;;;;;;;;;;4990946;28;20034;-67
2023/04/12 06:17:37;;;;;;;13.63;3.90;;;;;;;;;;4990583;28;20080;-67
2023/04/12 06:20:08;;;;;;;8.52;3.25;;;;;;;;;;4991147;28;20037;-66
2023/04/12 06:22:33;;;;;;;;;;;;;;;;;;4991465;28;20022;-67
2023/04/12 06:24:58;;;;;;;10.23;3.63;;;;;;;;;;4991225;28;20021;-67
2023/04/12 06:27:24;;;;;;;8.25;3.40;;;;;;;;;;4990566;28;20466;-67
2023/04/12 06:29:50;;;;;;;8.50;3.88;;;;;;;;;;4991048;28;20061;-68
2023/04/12 06:32:15;;;;;;;7.72;3.80;;;;;;;;;;4990744;28;20041;-67
2023/04/12 06:34:41;;;;;;;12.32;3.85;;;;;;;;;;4990931;28;20471;-66
2023/04/12 06:37:06;;;;;;;19.08;4.30;;;;;;;;;;4990291;28;20029;-67
2023/04/12 06:39:32;;;;;;;17.30;4.50;;;;;;;;;;4990778;28;20034;-67
2023/04/12 06:41:57;;;;;;;17.15;4.70;;;;;;;;;;4990669;28;20029;-67
2023/04/12 06:44:23;;;;;;;24.67;4.78;;;;;;;;;;4990645;28;20184;-67
2023/04/12 06:46:48;;;;;;;15.73;4.57;;;;;;;;;;4990252;28;20418;-67
2023/04/12 06:49:14;;;;;;;14.95;4.60;;;;;;;;;;4989321;28;20113;-68
2023/04/12 06:51:39;;;;;;;17.50;4.80;;;;;;;;;;4990229;28;20410;-65
2023/04/12 06:54:04;;;;;;;12.05;4.72;;;;;;;;;;4990455;28;20022;-66
2023/04/12 06:56:30;;;;;;;15.85;4.47;;;;;;;;;;4990293;28;20049;-67
2023/04/12 06:58:55;;;;;;;10.57;3.95;;;;;;;;;;4990320;28;20023;-67
2023/04/12 07:01:21;;;;;;;14.23;4.70;;;;;;;;;;4990604;28;20018;-67
2023/04/12 07:03:46;;;;;;;15.00;4.43;;;;;;;;;;4990419;28;20030;-67
2023/04/12 07:06:12;;;;;;;11.13;4.30;;;;;;;;;;4990236;28;20120;-67
2023/04/12 07:08:37;;;;;;;12.82;4.57;;;;;;;;;;4990274;28;20037;-65
2023/04/12 07:11:03;;;;;;;13.55;4.53;;;;;;;;;;4990199;28;20026;-68
2023/04/12 07:13:29;;;;;;;7.85;4.00;;;;;;;;;;4990081;28;20201;-67
2023/04/12 07:15:55;;;;;;;15.23;4.80;;;;;;;;;;4990513;28;20049;-67
2023/04/12 07:18:20;;;;;;;11.20;4.70;;;;;;;;;;4990150;28;20145;-67
2023/04/12 07:20:47;;;;;;;15.25;4.72;;;;;;;;;;4990186;28;20030;-67
2023/04/12 07:23:13;;;;;;;13.07;4.70;;;;;;;;;;4988836;28;20479;-67
2023/04/12 07:25:39;;;;;;;10.85;4.55;;;;;;;;;;4991489;28;20026;-67
2023/04/12 07:28:05;;;;;;;11.40;4.75;;;;;;;;;;4994085;28;20081;-67
2023/04/12 07:30:30;;;;;;;9.85;4.70;;;;;;;;;;4994344;28;20513;-67
2023/04/12 07:32:55;;;;;;;11.90;4.65;;;;;;;;;;4994021;28;20026;-67
2023/04/12 07:35:21;;;;;;;11.60;5.22;;;;;;;;;;4994064;28;20038;-67
2023/04/12 07:37:46;;;;;;;13.05;4.90;;;;;;;;;;4993571;28;20026;-69
2023/04/12 07:40:12;;;;;;;11.75;4.45;;;;;;;;;;4993975;28;20068;-67
2023/04/12 07:42:37;;;;;;;13.38;4.85;;;;;;;;;;4992433;28;20022;-68
2023/04/12 07:45:03;;;;;;;10.48;4.47;;;;;;;;;;4993737;28;20109;-68
2023/04/12 07:47:28;;;;;;;11.48;4.30;;;;;;;;;;4993350;28;20037;-67
2023/04/12 07:49:54;;;;;;;10.50;4.03;;;;;;;;;;4993873;28;20018;-67
2023/04/12 07:52:20;;;;;;;11.57;3.80;;;;;;;;;;4993330;28;20026;-68
2023/04/12 07:54:45;;;;;;;11.88;4.28;;;;;;;;;;4993784;28;20022;-67
2023/04/12 07:57:11;;;;;;;10.57;4.05;;;;;;;;;;4993416;28;20684;-67
2023/04/12 07:59:36;;;;;;;10.63;3.95;;;;;;;;;;4993351;28;20022;-68
2023/04/12 08:02:02;;;;;;;8.95;3.95;;;;;;;;;;4992147;28;20018;-67
2023/04/12 08:04:27;;;;;;;13.13;4.28;;;;;;;;;;4992189;28;20026;-68
2023/04/12 08:06:53;;;;;;;10.05;4.03;;;;;;;;;;4993293;28;20497;-68
2023/04/12 08:09:19;;;;;;;10.07;4.25;;;;;;;;;;4992048;28;20030;-68
2023/04/12 08:11:46;;;;;;;10.60;3.90;;;;;;;;;;4993357;28;20470;-66
2023/04/12 08:14:12;;;;;;;8.43;3.83;;;;;;;;;;4993286;28;20030;-67
2023/04/12 08:16:37;;;;;;;10.35;4.00;;;;;;;;;;4993297;28;20390;-67
2023/04/12 08:19:03;;;;;;;11.60;3.72;;;;;;;;;;4993072;28;20030;-67
2023/04/12 08:21:28;;;;;;;10.45;4.05;;;;;;;;;;4993276;28;20520;-67
2023/04/12 08:23:54;;;;;;;9.90;3.95;;;;;;;;;;4993087;28;20077;-67
2023/04/12 08:26:20;;;;;;;7.28;3.67;;;;;;;;;;4992838;28;20038;-67
2023/04/12 08:28:47;;;;;;;11.85;4.18;;;;;;;;;;4993139;28;20081;-67
2023/04/12 08:31:13;;;;;;;14.73;4.13;;;;;;;;;;4993305;28;20026;-67
2023/04/12 08:33:38;;;;;;;10.50;3.80;;;;;;;;;;4992925;28;20030;-67
2023/04/12 08:36:04;;;;;;;12.48;3.80;;;;;;;;;;4992198;28;20491;-67
2023/04/12 08:38:30;;;;;;;9.60;3.65;;;;;;;;;;4991185;28;20170;-67
2023/04/12 08:40:56;;;;;;;11.40;3.30;;;;;;;;;;4993393;28;20062;-67
2023/04/12 08:43:25;;;;;;;11.98;3.60;;;;;;;;;;4992810;28;20038;-67
2023/04/12 08:45:50;;;;;;;11.07;3.58;;;;;;;;;;4992952;28;20046;-67
2023/04/12 08:48:17;;;;;;;7.57;3.22;;;;;;;;;;4992383;28;20422;-67
2023/04/12 08:50:45;;;;;;;8.45;3.40;;;;;;;;;;4992854;28;20033;-68
2023/04/12 08:53:10;;;;;;;10.60;3.20;;;;;;;;;;4992476;28;20034;-67
2023/04/12 08:55:36;;;;;;;7.30;3.00;;;;;;;;;;4992748;28;20106;-67
2023/04/12 08:58:06;;;;;;;14.07;3.20;;;;;;;;;;4992154;28;20104;-67
2023/04/12 09:00:32;;;;;;;7.90;2.80;;;;;;;;;;4992633;28;20386;-68
2023/04/12 09:02:59;;;;;;;11.70;3.13;;;;;;;;;;4992418;28;20049;-67
2023/04/12 09:05:28;;;;;;;9.27;2.92;;;;;;;;;;4992535;28;20038;-67
2023/04/12 09:07:54;;;;;;;9.60;3.03;;;;;;;;;;4992091;28;20027;-67
2023/04/12 09:10:37;;;;;;;7.53;3.10;;;;;;;;;;4992354;28;20030;-67
2023/04/12 09:13:05;;;;;;;15.63;3.35;;;;;;;;;;4991925;28;20444;-67
2023/04/12 09:15:32;;;;;;;10.18;3.00;;;;;;;;;;4992251;28;20096;-68
2023/04/12 09:18:17;;;;;;;11.82;2.70;;;;;;;;;;4992031;28;20110;-67
2023/04/12 09:20:42;;;;;;;6.53;2.33;;;;;;;;;;4992268;28;20122;-67
2023/04/12 09:23:19;;;;;;;8.93;2.83;;;;;;;;;;4991846;28;20133;-67
2023/04/12 09:25:47;;;;;;;7.95;2.38;;;;;;;;;;4992179;28;20069;-67
2023/04/12 09:28:24;;;;;;;7.03;2.35;;;;;;;;;;4991851;28;20062;-67
2023/04/12 09:30:51;;;;;;;8.48;2.30;;;;;;;;;;4991760;28;20034;-67
2023/04/12 09:33:18;;;;;;;7.72;2.30;;;;;;;;;;4991652;28;20030;-68
2023/04/12 09:35:43;;;;;;;9.15;2.35;;;;;;;;;;4992041;28;20050;-67
2023/04/12 09:38:09;;;;;;;6.38;2.30;;;;;;;;;;4991407;28;20054;-67
2023/04/12 09:40:36;;;;;;;8.63;2.40;;;;;;;;;;4991792;28;20057;-67
2023/04/12 09:43:02;;;;;;;8.25;2.53;;;;;;;;;;4991998;28;20034;-68
2023/04/12 09:45:30;;;;;;;8.75;2.30;;;;;;;;;;4991300;28;20077;-67
2023/04/12 09:47:56;;;;;;;9.25;3.00;;;;;;;;;;4990597;28;20033;-68
2023/04/12 09:50:32;;;;;;;7.32;2.78;;;;;;;;;;4991532;28;20057;-68
2023/04/12 09:53:02;;;;;;;7.55;2.38;;;;;;;;;;4991502;28;20073;-68
2023/04/12 09:55:30;;;;;;;5.43;2.22;;;;;;;;;;4990148;28;20030;-67
2023/04/12 09:58:00;;;;;;;7.68;2.40;;;;;;;;;;4991284;28;20035;-67
2023/04/12 10:00:26;;;;;;;9.93;2.40;;;;;;;;;;4991443;28;20045;-67
2023/04/12 10:02:53;;;;;;;7.45;2.20;;;;;;;;;;4991477;28;20026;-67
2023/04/12 10:05:20;;;;;;;7.25;2.03;;;;;;;;;;4991255;28;20022;-67
2023/04/12 10:07:46;;;;;;;13.52;2.40;;;;;;;;;;4991076;28;20080;-67
2023/04/12 10:10:13;;;;;;;8.57;2.33;;;;;;;;;;4989631;28;20037;-67
2023/04/12 10:12:40;;;;;;;11.35;2.40;;;;;;;;;;4991179;28;20032;-66
2023/04/12 10:15:12;;;;;;;8.27;2.30;;;;;;;;;;4991057;28;20516;-67
2023/04/12 10:17:45;;;;;;;7.57;2.30;;;;;;;;;;4989756;28;20027;-67
2023/04/12 10:20:15;;;;;;;8.48;2.47;;;;;;;;;;4990858;28;20030;-66
2023/04/12 10:22:43;;;;;;;8.85;2.55;;;;;;;;;;4990863;28;20034;-66
2023/04/12 10:25:11;;;;;;;6.85;2.30;;;;;;;;;;4990745;28;20038;-66
2023/04/12 10:27:39;;;;;;;6.72;2.25;;;;;;;;;;4989521;28;20033;-67
2023/04/12 10:30:27;;;;;;;8.07;2.38;;;;;;;;;;4990796;28;20033;-66
2023/04/12 10:33:01;;;;;;;8.25;2.20;;;;;;;;;;4991065;28;20403;-65
2023/04/12 10:35:28;;;;;;;7.20;2.25;;;;;;;;;;4990550;28;20014;-68
2023/04/12 10:38:00;;;;;;;8.88;2.30;;;;;;;;;;4990672;28;20026;-67
2023/04/12 10:40:27;;;;;;;6.80;2.10;;;;;;;;;;4990769;28;20026;-67
2023/04/12 10:43:28;;;;;;;6.85;1.75;;;;;;;;;;4989290;28;20029;-65
2023/04/12 10:45:54;;;;;;;7.65;1.90;;;;;;;;;;4910805;29;20460;-67
2023/04/12 10:48:50;;;;;;;4.70;1.85;;;;;;;;;;4969319;28;20501;-68
2023/04/12 10:51:26;;;;;;;4.78;1.90;;;;;;;;;;4989109;28;20403;-68
2023/04/12 10:54:15;;;;;;;7.28;1.80;;;;;;;;;;4990684;28;20031;-67
2023/04/12 10:56:42;;;;;;;5.15;1.80;;;;;;;;;;4974557;28;20507;-68
2023/04/12 10:59:12;;;;;;;9.73;1.80;;;;;;;;;;4990033;28;20551;-67
2023/04/12 11:01:38;;;;;;;4.35;1.90;;;;;;;;;;4990651;28;20030;-68
2023/04/12 11:04:19;;;;;;;6.72;2.25;;;;;;;;;;4990474;28;20059;-67
2023/04/12 11:06:51;;;;;;;6.70;1.98;;;;;;;;;;4990470;28;20041;-67
2023/04/12 11:09:26;;;;;;;10.07;2.03;;;;;;;;;;4990029;28;20057;-67
2023/04/12 11:12:12;;;;;;;6.57;2.20;;;;;;;;;;4990484;28;20030;-67
2023/04/12 11:14:49;;;;;;;5.80;1.88;;;;;;;;;;4990108;28;20443;-67
2023/04/12 11:17:16;;;;;;;5.30;1.85;;;;;;;;;;4990627;28;20018;-67
2023/04/12 11:19:44;;;;;;;4.82;1.88;;;;;;;;;;4991614;28;20129;-67
2023/04/12 11:22:12;;;;;;;5.35;2.00;;;;;;;;;;4993781;28;20594;-67
2023/04/12 11:24:38;;;;;;;5.68;1.55;;;;;;;;;;4990913;28;20390;-67
2023/04/12 11:27:04;;;;;;;5.57;1.90;;;;;;;;;;4990868;28;20030;-67
2023/04/12 11:29:31;;;;;;;5.97;1.80;;;;;;;;;;4990170;28;20077;-67
2023/04/12 11:31:57;;;;;;;6.43;1.90;;;;;;;;;;4990366;28;20026;-67
2023/04/12 11:34:23;;;;;;;4.03;1.48;;;;;;;;;;4990303;28;20157;-67
2023/04/12 11:36:52;;;;;;;6.63;1.73;;;;;;;;;;4989978;28;20082;-67
2023/04/12 11:39:19;;;;;;;5.50;1.70;;;;;;;;;;4989936;28;20113;-67
2023/04/12 11:41:47;;;;;;;5.72;1.85;;;;;;;;;;4990001;28;20077;-67
2023/04/12 11:44:18;;;;;;;5.05;1.80;;;;;;;;;;4990068;28;20038;-67
2023/04/12 11:46:47;;;;;;;4.47;1.77;;;;;;;;;;4990016;28;20447;-67
2023/04/12 11:49:18;;;;;;;5.95;1.70;;;;;;;;;;4989957;28;20030;-66
2023/04/12 11:51:44;;;;;;;8.00;1.80;;;;;;;;;;4989458;28;20031;-67
2023/04/12 11:54:10;;;;;;;5.68;2.05;;;;;;;;;;4989291;28;20037;-67
2023/04/12 11:56:36;;;;;;;8.85;2.15;;;;;;;;;;4989458;28;20034;-67
2023/04/12 11:59:02;;;;;;;5.88;1.95;;;;;;;;;;4988266;28;20026;-67
2023/04/12 12:01:28;;;;;;;8.40;2.20;;;;;;;;;;4989727;28;20033;-68
2023/04/12 12:03:54;;;;;;;7.50;2.10;;;;;;;;;;4989908;28;20504;-68
2023/04/12 12:06:22;;;;;;;6.70;1.80;;;;;;;;;;4989751;28;20022;-68
2023/04/12 12:08:51;;;;;;;5.95;2.00;;;;;;;;;;4989622;28;20534;-67
2023/04/12 12:11:18;;;;;;;6.72;2.08;;;;;;;;;;4989940;28;20026;-67
2023/04/12 12:13:55;;;;;;;5.55;2.15;;;;;;;;;;4993242;28;20152;-67
2023/04/12 12:16:28;;;;;;;4.93;1.90;;;;;;;;;;4993079;28;20090;-67
2023/04/12 12:18:54;;;;;;;5.70;2.00;;;;;;;;;;4993311;28;20181;-67
2023/04/12 12:21:20;;;;;;;7.50;1.92;;;;;;;;;;4993018;28;20498;-67
2023/04/12 12:23:47;;;;;;;5.63;2.15;;;;;;;;;;4993188;28;20113;-67
2023/04/12 12:26:27;;;;;;;4.85;2.00;;;;;;;;;;4993132;28;20133;-68
2023/04/12 12:28:56;;;;;;;7.53;2.38;;;;;;;;;;4993093;28;20034;-67
2023/04/12 12:31:25;;;;;;;7.85;2.10;;;;;;;;;;4992906;28;20030;-67
2023/04/12 12:33:55;;;;;;;9.98;2.38;;;;;;;;;;4993179;28;20036;-67
2023/04/12 12:36:32;;;;;;;9.43;2.33;;;;;;;;;;4992633;28;20474;-67
2023/04/12 12:39:05;;;;;;;5.82;2.53;;;;;;;;;;4993006;28;20050;-67
2023/04/12 12:41:31;;;;;;;5.88;2.33;;;;;;;;;;4992806;28;20030;-67
2023/04/12 12:43:56;;;;;;;6.10;2.58;;;;;;;;;;4992810;28;20125;-67
2023/04/12 12:46:22;;;;;;;9.20;2.30;;;;;;;;;;4992523;28;20182;-67
2023/04/12 12:48:47;;;;;;;7.95;2.28;;;;;;;;;;4992646;28;20030;-68
2023/04/12 12:51:16;;;;;;;6.30;2.35;;;;;;;;;;5007429;28;20450;-67
2023/04/12 12:53:42;;;;;;;7.03;2.45;;;;;;;;;;4992900;28;20026;-67
2023/04/12 12:56:09;;;;;;;6.13;2.42;;;;;;;;;;4992527;28;20538;-67
2023/04/12 12:58:35;;;;;;;6.35;2.40;;;;;;;;;;4992551;28;20035;-67
2023/04/12 13:01:01;;;;;;;8.82;2.70;;;;;;;;;;4992462;28;20026;-67
2023/04/12 13:03:26;;;;;;;8.32;2.60;;;;;;;;;;4992394;28;20639;-67
2023/04/12 13:05:51;;;;;;;6.68;2.20;;;;;;;;;;4992464;28;20077;-67
2023/04/12 13:08:17;;;;;;;5.60;1.88;;;;;;;;;;4992313;28;20027;-67
2023/04/12 13:10:43;;;;;;;9.43;2.22;;;;;;;;;;4990932;28;20038;-67
2023/04/12 13:13:08;;;;;;;5.45;0.93;;;;;;;;;;4992016;28;20030;-67
2023/04/12 13:15:34;;;;;;;5.85;0.90;;;;;;;;;;4992177;28;20038;-67
2023/04/12 13:18:00;;;;;;;2.80;0.70;;;;;;;;;;4992290;28;20030;-67
2023/04/12 13:20:26;;;;;;;3.03;0.75;;;;;;;;;;4990639;28;20434;-66
2023/04/12 13:22:52;;;;;;;2.72;0.55;;;;;;;;;;4992904;28;20037;-67
2023/04/12 13:25:18;;;;;;;1.42;0.60;;;;;;;;;;4993491;28;20030;-67
2023/04/12 13:27:44;;;;;;;2.72;0.77;;;;;;;;;;4992850;28;20029;-67
2023/04/12 13:30:10;;;;;;;4.43;0.80;;;;;;;;;;4992171;28;20042;-67
2023/04/12 13:32:36;;;;;;;5.15;0.88;;;;;;;;;;4992123;28;20608;-67
2023/04/12 13:35:02;;;;;;;3.33;0.60;;;;;;;;;;4992129;28;20037;-67
2023/04/12 13:37:27;;;;;;;2.47;0.50;;;;;;;;;;4991698;28;20027;-66
2023/04/12 13:39:53;;;;;;;1.92;0.52;;;;;;;;;;4991765;28;20096;-67
2023/04/12 13:42:18;;;;;;;2.97;0.60;;;;;;;;;;4991579;28;20118;-66
2023/04/12 13:44:44;;;;;;;2.38;1.00;;;;;;;;;;4991750;28;20050;-67
2023/04/12 13:47:10;;;;;;;1.77;0.57;;;;;;;;;;4991589;28;20042;-67
2023/04/12 13:49:36;;;;;;;1.73;0.60;;;;;;;;;;4991698;28;20100;-67
2023/04/12 13:52:02;;;;;;;2.88;0.45;;;;;;;;;;4991683;28;20063;-67
2023/04/12 13:54:30;;;;;;;2.28;0.50;;;;;;;;;;4991661;28;20093;-68
2023/04/12 13:56:56;;;;;;;1.50;0.50;;;;;;;;;;4989993;28;20041;-67
2023/04/12 13:59:21;;;;;;;1.67;0.60;;;;;;;;;;4991389;28;20045;-67
2023/04/12 14:01:47;;;;;;;2.08;0.50;;;;;;;;;;4991298;28;20532;-68
2023/04/12 14:04:12;;;;;;;1.95;0.63;;;;;;;;;;4992215;28;20034;-68
2023/04/12 14:06:38;;;;;;;2.50;0.52;;;;;;;;;;4991705;28;20026;-68
2023/04/12 14:09:04;;;;;;;3.10;0.60;;;;;;;;;;4992763;28;20022;-66
2023/04/12 14:11:43;;;;;;;1.75;0.65;;;;;;;;;;4991468;28;20505;-66
2023/04/12 14:14:08;;;;;;;2.83;0.60;;;;;;;;;;4991386;28;20031;-68
2023/04/12 14:16:34;;;;;;;1.17;0.50;;;;;;;;;;4991450;28;20030;-66
2023/04/12 14:19:00;;;;;;;3.10;0.70;;;;;;;;;;4991071;28;20026;-67
2023/04/12 14:21:27;;;;;;;2.50;0.60;;;;;;;;;;4990885;28;20421;-66
2023/04/12 14:23:53;;;;;;;2.88;0.82;;;;;;;;;;4991146;28;20078;-67
2023/04/12 14:26:18;;;;;;;3.67;0.80;;;;;;;;;;4991112;28;20485;-67
2023/04/12 14:28:44;;;;;;;2.55;0.90;;;;;;;;;;4990916;28;20028;-67
2023/04/12 14:31:09;;;;;;;3.60;0.88;;;;;;;;;;4990753;28;20029;-67
2023/04/12 14:33:34;;;;;;;1.92;0.82;;;;;;;;;;4990814;28;20352;-67
2023/04/12 14:36:03;;;;;;;5.07;0.88;;;;;;;;;;4990583;28;20421;-66
2023/04/12 14:38:29;;;;;;;2.38;0.70;;;;;;;;;;4990576;28;20023;-67
2023/04/12 14:40:55;;;;;;;1.98;0.60;;;;;;;;;;5006232;28;20030;-67
2023/04/12 14:43:20;;;;;;;2.83;0.73;;;;;;;;;;4990479;28;20682;-68